Time;durP1;ratioP1;P1;durP2;ratioP2;P2;SDS_P1;SDS_P2;PMS_P1;PMS_P2;Temp;Humidity;BMP_temperature;BMP_pressure;BME280_temperature;BME280_humidity;BME280_pressure;Samples;Min_cycle;Max_cycle;Signal;HPM_P1;HPM_P2
2023/12/23 00:01:15;;;;;;;4.45;1.08;;;;;;;;;;5045091;28;40745;-72
2023/12/23 00:03:43;;;;;;;3.13;0.80;;;;;;;;;;5068041;28;42580;-74
2023/12/23 00:06:11;;;;;;;3.85;1.13;;;;;;;;;;5068003;28;41804;-72
2023/12/23 00:08:38;;;;;;;4.10;1.30;;;;;;;;;;5068595;28;41073;-73
2023/12/23 00:11:06;;;;;;;3.72;0.77;;;;;;;;;;5068995;28;41160;-72
2023/12/23 00:13:34;;;;;;;3.65;0.70;;;;;;;;;;5069632;28;43057;-72
2023/12/23 00:16:04;;;;;;;5.47;0.85;;;;;;;;;;5070988;28;41390;-70
2023/12/23 00:18:32;;;;;;;4.97;1.10;;;;;;;;;;5055954;28;42504;-72
2023/12/23 00:21:00;;;;;;;4.22;0.98;;;;;;;;;;5068482;28;43287;-72
2023/12/23 00:23:28;;;;;;;3.47;0.95;;;;;;;;;;5064166;28;41598;-72
2023/12/23 00:25:57;;;;;;;4.18;1.30;;;;;;;;;;5066818;28;43151;-72
2023/12/23 00:28:25;;;;;;;3.88;1.00;;;;;;;;;;5065614;28;41651;-72
2023/12/23 00:30:53;;;;;;;2.35;0.65;;;;;;;;;;5068835;28;42556;-71
2023/12/23 00:33:22;;;;;;;1.15;0.50;;;;;;;;;;5040351;28;40462;-72
2023/12/23 00:35:50;;;;;;;2.65;1.00;;;;;;;;;;5061533;28;41511;-72
2023/12/23 00:38:18;;;;;;;3.15;0.80;;;;;;;;;;5065428;28;41716;-72
2023/12/23 00:40:46;;;;;;;1.95;0.55;;;;;;;;;;5042945;28;41119;-72
2023/12/23 00:43:15;;;;;;;5.53;1.00;;;;;;;;;;5059721;28;41951;-71
2023/12/23 00:45:43;;;;;;;5.00;0.90;;;;;;;;;;5050394;28;41588;-71
2023/12/23 00:48:13;;;;;;;3.05;0.82;;;;;;;;;;5051867;28;39734;-72
2023/12/23 00:50:42;;;;;;;4.65;0.73;;;;;;;;;;5062882;28;41586;-72
2023/12/23 00:53:10;;;;;;;4.32;0.90;;;;;;;;;;5068185;28;42103;-72
2023/12/23 00:55:39;;;;;;;4.13;0.80;;;;;;;;;;5081802;28;42355;-72
2023/12/23 00:58:07;;;;;;;3.92;0.82;;;;;;;;;;5066193;28;40946;-72
2023/12/23 01:00:35;;;;;;;2.00;0.73;;;;;;;;;;5063661;28;41647;-72
2023/12/23 01:03:04;;;;;;;3.35;0.80;;;;;;;;;;5049567;28;40002;-72
2023/12/23 01:05:32;;;;;;;2.67;0.80;;;;;;;;;;5068724;28;42579;-72
2023/12/23 01:08:02;;;;;;;4.50;1.08;;;;;;;;;;5049575;28;41176;-72
2023/12/23 01:10:30;;;;;;;2.58;0.93;;;;;;;;;;5068826;28;42656;-72
2023/12/23 01:12:58;;;;;;;3.25;0.80;;;;;;;;;;5050025;28;41682;-72
2023/12/23 01:15:26;;;;;;;4.50;1.02;;;;;;;;;;5061436;28;42276;-71
2023/12/23 01:17:54;;;;;;;2.72;0.50;;;;;;;;;;5066695;28;41758;-72
2023/12/23 01:20:22;;;;;;;2.25;0.75;;;;;;;;;;5070438;28;42703;-72
2023/12/23 01:22:50;;;;;;;1.95;0.50;;;;;;;;;;5067624;28;42205;-72
2023/12/23 01:25:20;;;;;;;2.80;0.77;;;;;;;;;;5066519;28;42639;-72
2023/12/23 01:27:48;;;;;;;3.22;0.93;;;;;;;;;;5068531;28;42138;-72
2023/12/23 01:30:16;;;;;;;4.30;0.60;;;;;;;;;;5065951;28;41401;-72
2023/12/23 01:32:44;;;;;;;1.95;0.60;;;;;;;;;;5063838;28;41968;-72
2023/12/23 01:35:13;;;;;;;2.55;0.60;;;;;;;;;;5045400;28;41664;-72
2023/12/23 01:37:41;;;;;;;6.82;0.60;;;;;;;;;;5068146;28;43073;-72
2023/12/23 01:40:09;;;;;;;1.35;0.57;;;;;;;;;;5048139;28;42010;-71
2023/12/23 01:42:39;;;;;;;2.15;0.60;;;;;;;;;;5048600;28;39764;-72
2023/12/23 01:45:08;;;;;;;4.65;0.98;;;;;;;;;;5047255;28;40233;-71
2023/12/23 01:47:36;;;;;;;2.40;0.50;;;;;;;;;;5044966;28;40660;-71
2023/12/23 01:50:04;;;;;;;2.05;0.47;;;;;;;;;;5063883;28;39493;-72
2023/12/23 01:52:32;;;;;;;2.33;0.73;;;;;;;;;;5078066;28;41561;-71
2023/12/23 01:55:00;;;;;;;2.60;0.57;;;;;;;;;;5066276;28;42362;-72
2023/12/23 01:57:28;;;;;;;3.13;0.73;;;;;;;;;;5062138;28;41276;-72
2023/12/23 01:59:58;;;;;;;2.55;0.70;;;;;;;;;;5064714;28;42156;-72
2023/12/23 02:02:26;;;;;;;2.10;0.60;;;;;;;;;;5044370;28;39482;-72
2023/12/23 02:04:54;;;;;;;3.28;0.60;;;;;;;;;;5066361;28;42147;-71
2023/12/23 02:07:22;;;;;;;1.85;0.57;;;;;;;;;;5047804;28;41899;-71
2023/12/23 02:09:50;;;;;;;1.77;0.52;;;;;;;;;;5068126;28;42796;-72
2023/12/23 02:12:20;;;;;;;2.28;0.50;;;;;;;;;;5068235;28;41800;-72
2023/12/23 02:14:48;;;;;;;1.92;0.50;;;;;;;;;;5067189;28;42058;-71
2023/12/23 02:17:19;;;;;;;2.22;0.50;;;;;;;;;;5049397;28;20283;-71
2023/12/23 02:19:47;;;;;;;1.65;0.68;;;;;;;;;;5065357;28;43145;-72
2023/12/23 02:22:17;;;;;;;2.75;0.70;;;;;;;;;;5045729;28;40682;-71
2023/12/23 02:24:45;;;;;;;4.55;1.08;;;;;;;;;;5067669;28;42691;-72
2023/12/23 02:27:14;;;;;;;2.13;0.68;;;;;;;;;;5066991;28;42092;-71
2023/12/23 02:29:42;;;;;;;2.20;0.50;;;;;;;;;;5064113;28;41256;-72
2023/12/23 02:32:10;;;;;;;2.88;0.50;;;;;;;;;;5064087;28;42581;-72
2023/12/23 02:34:38;;;;;;;1.25;0.47;;;;;;;;;;5065522;28;41106;-71
2023/12/23 02:37:06;;;;;;;1.10;0.47;;;;;;;;;;5059196;28;42461;-72
2023/12/23 02:39:35;;;;;;;1.90;0.70;;;;;;;;;;5061203;28;41798;-72
2023/12/23 02:42:04;;;;;;;2.55;0.80;;;;;;;;;;5064993;28;40713;-72
2023/12/23 02:44:33;;;;;;;4.45;0.70;;;;;;;;;;5055023;28;41366;-72
2023/12/23 02:47:02;;;;;;;3.03;0.60;;;;;;;;;;5065757;28;42102;-72
2023/12/23 02:49:30;;;;;;;1.75;0.73;;;;;;;;;;5066492;28;41008;-71
2023/12/23 02:51:58;;;;;;;1.83;0.40;;;;;;;;;;5066883;28;43149;-72
2023/12/23 02:54:26;;;;;;;2.58;0.80;;;;;;;;;;5056415;28;42069;-71
2023/12/23 02:56:55;;;;;;;2.55;0.80;;;;;;;;;;5059901;28;41616;-71
2023/12/23 02:59:23;;;;;;;3.60;0.75;;;;;;;;;;5049576;28;42020;-72
2023/12/23 03:01:53;;;;;;;2.72;0.93;;;;;;;;;;5063516;28;41180;-72
2023/12/23 03:04:23;;;;;;;2.70;0.80;;;;;;;;;;5062670;28;41401;-72
2023/12/23 03:06:51;;;;;;;1.95;0.63;;;;;;;;;;5054517;28;43251;-72
2023/12/23 03:09:19;;;;;;;2.40;0.50;;;;;;;;;;5076426;28;40899;-72
2023/12/23 03:11:47;;;;;;;1.52;0.52;;;;;;;;;;5068540;28;42673;-72
2023/12/23 03:14:17;;;;;;;3.03;0.93;;;;;;;;;;5081294;28;42296;-72
2023/12/23 03:16:45;;;;;;;3.25;0.80;;;;;;;;;;5090161;28;41991;-72
2023/12/23 03:19:13;;;;;;;3.75;0.60;;;;;;;;;;5071457;28;42411;-72
2023/12/23 03:21:44;;;;;;;6.13;0.75;;;;;;;;;;5073594;28;42244;-71
2023/12/23 03:24:12;;;;;;;1.73;0.57;;;;;;;;;;5078854;28;42412;-72
2023/12/23 03:26:39;;;;;;;2.47;0.70;;;;;;;;;;5083865;28;42429;-72
2023/12/23 03:29:07;;;;;;;1.67;0.60;;;;;;;;;;5051098;28;39899;-72
2023/12/23 03:31:36;;;;;;;2.65;0.70;;;;;;;;;;5061432;28;40066;-71
2023/12/23 03:34:04;;;;;;;2.95;0.75;;;;;;;;;;5065575;28;43199;-72
2023/12/23 03:36:32;;;;;;;2.78;0.60;;;;;;;;;;5070068;28;42276;-72
2023/12/23 03:39:00;;;;;;;2.33;0.63;;;;;;;;;;5064033;28;41440;-72
2023/12/23 03:41:28;;;;;;;1.85;0.50;;;;;;;;;;5059497;28;41431;-72
2023/12/23 03:43:56;;;;;;;2.45;0.70;;;;;;;;;;5066384;28;42419;-72
2023/12/23 03:46:24;;;;;;;3.30;0.63;;;;;;;;;;5052780;28;41325;-71
2023/12/23 03:48:54;;;;;;;3.58;0.70;;;;;;;;;;5045956;28;39893;-71
2023/12/23 03:51:23;;;;;;;3.10;0.70;;;;;;;;;;5067658;28;41848;-72
2023/12/23 03:53:51;;;;;;;2.17;0.63;;;;;;;;;;5067079;28;43438;-72
2023/12/23 03:56:20;;;;;;;2.03;0.70;;;;;;;;;;5041502;28;39835;-72
2023/12/23 03:58:48;;;;;;;1.83;0.70;;;;;;;;;;5054700;28;42644;-72
2023/12/23 04:01:17;;;;;;;2.80;0.63;;;;;;;;;;5063208;28;43036;-72
2023/12/23 04:03:46;;;;;;;1.75;0.63;;;;;;;;;;5044227;28;40592;-71
2023/12/23 04:06:15;;;;;;;1.80;0.60;;;;;;;;;;5050086;28;41669;-72
2023/12/23 04:08:43;;;;;;;2.03;0.63;;;;;;;;;;5069008;28;41007;-72
2023/12/23 04:11:11;;;;;;;1.83;0.60;;;;;;;;;;5036982;28;40338;-72
2023/12/23 04:13:39;;;;;;;3.08;0.60;;;;;;;;;;5054213;28;42093;-71
2023/12/23 04:16:08;;;;;;;2.22;0.60;;;;;;;;;;5063762;28;42064;-72
2023/12/23 04:18:38;;;;;;;2.78;0.70;;;;;;;;;;5051916;28;41635;-72
2023/12/23 04:21:09;;;;;;;3.72;0.88;;;;;;;;;;5068699;28;43048;-72
2023/12/23 04:23:38;;;;;;;2.83;0.90;;;;;;;;;;5050667;28;41067;-72
2023/12/23 04:26:07;;;;;;;2.67;0.90;;;;;;;;;;5050745;28;41682;-72
2023/12/23 04:28:35;;;;;;;2.40;0.65;;;;;;;;;;5048997;28;39892;-72
2023/12/23 04:31:03;;;;;;;2.90;1.08;;;;;;;;;;5038339;28;41055;-71
2023/12/23 04:33:31;;;;;;;2.42;0.82;;;;;;;;;;5068605;28;41963;-72
2023/12/23 04:36:00;;;;;;;3.58;0.75;;;;;;;;;;5049801;28;40519;-72
2023/12/23 04:38:28;;;;;;;2.45;0.90;;;;;;;;;;5046452;28;40641;-72
2023/12/23 04:40:57;;;;;;;2.78;0.93;;;;;;;;;;5075999;28;42910;-72
2023/12/23 04:43:25;;;;;;;2.53;0.80;;;;;;;;;;5039852;28;39343;-72
2023/12/23 04:45:53;;;;;;;2.58;0.70;;;;;;;;;;5050205;28;40626;-72
2023/12/23 04:48:21;;;;;;;1.50;0.80;;;;;;;;;;5079772;28;42226;-72
2023/12/23 04:50:49;;;;;;;2.92;1.00;;;;;;;;;;5051971;28;40685;-72
2023/12/23 04:53:17;;;;;;;3.00;1.00;;;;;;;;;;5040341;28;41808;-72
2023/12/23 04:55:45;;;;;;;2.42;0.73;;;;;;;;;;5079595;28;40684;-72
2023/12/23 04:58:15;;;;;;;3.50;0.80;;;;;;;;;;5070661;28;40489;-72
2023/12/23 05:00:43;;;;;;;2.63;0.80;;;;;;;;;;5050893;28;41382;-72
2023/12/23 05:03:11;;;;;;;2.97;0.90;;;;;;;;;;5068614;28;42134;-72
2023/12/23 05:05:40;;;;;;;3.80;0.95;;;;;;;;;;5076271;28;41986;-72
2023/12/23 05:08:10;;;;;;;7.45;0.98;;;;;;;;;;5066710;28;41436;-72
2023/12/23 05:10:38;;;;;;;2.30;0.60;;;;;;;;;;5030124;28;40250;-71
2023/12/23 05:13:06;;;;;;;4.40;0.93;;;;;;;;;;5064089;28;41930;-71
2023/12/23 05:15:35;;;;;;;5.47;0.90;;;;;;;;;;5042232;28;39817;-72
2023/12/23 05:18:03;;;;;;;1.00;0.50;;;;;;;;;;5061028;28;42791;-72
2023/12/23 05:20:31;;;;;;;1.38;0.60;;;;;;;;;;5054211;28;41469;-72
2023/12/23 05:22:59;;;;;;;2.70;0.98;;;;;;;;;;5068411;28;40824;-72
2023/12/23 05:25:27;;;;;;;2.22;0.70;;;;;;;;;;5067568;28;42009;-72
2023/12/23 05:27:55;;;;;;;2.25;0.70;;;;;;;;;;5056794;28;43626;-72
2023/12/23 05:30:23;;;;;;;3.28;1.05;;;;;;;;;;5046717;28;41426;-72
2023/12/23 05:32:52;;;;;;;2.67;0.60;;;;;;;;;;5078320;28;41737;-72
2023/12/23 05:35:21;;;;;;;3.75;0.93;;;;;;;;;;5073480;28;41361;-72
2023/12/23 05:37:49;;;;;;;4.78;1.10;;;;;;;;;;5079018;28;42386;-72
2023/12/23 05:40:17;;;;;;;5.80;0.93;;;;;;;;;;5066931;28;42043;-72
2023/12/23 05:42:45;;;;;;;3.30;1.10;;;;;;;;;;5055479;28;42416;-71
2023/12/23 05:45:14;;;;;;;3.05;1.23;;;;;;;;;;5053343;28;42710;-73
2023/12/23 05:47:43;;;;;;;3.78;0.95;;;;;;;;;;5068743;28;42117;-71
2023/12/23 05:50:12;;;;;;;3.28;0.85;;;;;;;;;;5074873;28;41906;-70
2023/12/23 05:52:40;;;;;;;3.47;1.02;;;;;;;;;;5066369;28;41422;-71
2023/12/23 05:55:09;;;;;;;3.22;1.00;;;;;;;;;;5047315;28;41045;-71
2023/12/23 05:57:37;;;;;;;3.78;1.00;;;;;;;;;;5068161;28;41600;-72
2023/12/23 06:00:07;;;;;;;3.22;1.20;;;;;;;;;;5064816;28;41975;-72
2023/12/23 06:02:39;;;;;;;2.78;1.00;;;;;;;;;;5058063;28;42337;-72
2023/12/23 06:05:07;;;;;;;4.55;1.17;;;;;;;;;;5054956;28;41242;-72
2023/12/23 06:07:36;;;;;;;3.60;0.70;;;;;;;;;;5066933;28;42936;-72
2023/12/23 06:10:05;;;;;;;3.95;0.90;;;;;;;;;;5065722;28;41706;-72
2023/12/23 06:12:33;;;;;;;1.83;0.80;;;;;;;;;;5060198;28;43190;-72
2023/12/23 06:15:00;;;;;;;2.63;0.85;;;;;;;;;;5059007;28;41576;-72
2023/12/23 06:17:28;;;;;;;2.38;0.70;;;;;;;;;;5059077;28;41477;-70
2023/12/23 06:19:57;;;;;;;3.65;1.08;;;;;;;;;;5066777;28;42187;-71
2023/12/23 06:22:25;;;;;;;1.95;0.70;;;;;;;;;;5067450;28;42349;-72
2023/12/23 06:24:54;;;;;;;2.15;0.80;;;;;;;;;;5067993;28;41197;-70
2023/12/23 06:27:22;;;;;;;6.50;1.33;;;;;;;;;;5067754;28;41771;-71
2023/12/23 06:29:50;;;;;;;3.08;1.08;;;;;;;;;;5067305;28;42084;-71
2023/12/23 06:32:18;;;;;;;2.40;0.70;;;;;;;;;;5065355;28;41360;-71
2023/12/23 06:34:46;;;;;;;2.67;0.80;;;;;;;;;;5063465;28;33654;-71
2023/12/23 06:37:14;;;;;;;4.32;1.27;;;;;;;;;;5066145;28;41200;-72
2023/12/23 06:39:42;;;;;;;2.95;0.93;;;;;;;;;;5061362;28;42535;-71
2023/12/23 06:42:11;;;;;;;3.35;0.80;;;;;;;;;;5067154;28;42144;-72
2023/12/23 06:44:39;;;;;;;4.50;1.33;;;;;;;;;;5067437;28;41628;-71
2023/12/23 06:47:07;;;;;;;1.52;0.85;;;;;;;;;;5045529;28;40822;-72
2023/12/23 06:49:35;;;;;;;3.53;1.05;;;;;;;;;;5071037;28;40958;-72
2023/12/23 06:52:04;;;;;;;2.00;0.63;;;;;;;;;;5070989;28;41427;-72
2023/12/23 06:54:32;;;;;;;2.08;0.70;;;;;;;;;;5067154;28;42107;-72
2023/12/23 06:57:00;;;;;;;3.47;0.70;;;;;;;;;;5070408;28;42710;-72
2023/12/23 06:59:29;;;;;;;3.15;0.70;;;;;;;;;;5052602;28;41913;-72
2023/12/23 07:01:57;;;;;;;3.35;1.02;;;;;;;;;;5070288;28;41809;-72
2023/12/23 07:04:25;;;;;;;3.42;1.08;;;;;;;;;;5071105;28;41472;-72
2023/12/23 07:06:53;;;;;;;2.17;0.80;;;;;;;;;;5070168;28;42166;-72
2023/12/23 07:09:21;;;;;;;3.05;1.00;;;;;;;;;;5067047;28;40913;-72
2023/12/23 07:11:49;;;;;;;4.43;1.10;;;;;;;;;;5070479;28;41363;-72
2023/12/23 07:14:17;;;;;;;4.10;1.50;;;;;;;;;;5070773;28;42142;-72
2023/12/23 07:16:46;;;;;;;2.88;1.10;;;;;;;;;;5056197;28;41194;-72
2023/12/23 07:19:15;;;;;;;3.00;1.00;;;;;;;;;;5071053;28;41971;-72
2023/12/23 07:21:43;;;;;;;3.28;1.00;;;;;;;;;;5056257;28;41544;-71
2023/12/23 07:24:11;;;;;;;3.67;1.17;;;;;;;;;;5055971;28;41875;-71
2023/12/23 07:26:39;;;;;;;4.07;1.35;;;;;;;;;;5070804;28;41661;-72
2023/12/23 07:29:07;;;;;;;4.43;1.23;;;;;;;;;;5069118;28;40632;-72
2023/12/23 07:31:35;;;;;;;2.20;0.77;;;;;;;;;;5070173;28;41203;-72
2023/12/23 07:34:05;;;;;;;5.35;1.40;;;;;;;;;;5065758;28;42286;-72
2023/12/23 07:36:33;;;;;;;3.50;1.50;;;;;;;;;;5070554;28;42320;-72
2023/12/23 07:39:00;;;;;;;2.13;1.20;;;;;;;;;;5064034;28;42502;-72
2023/12/23 07:41:28;;;;;;;6.05;1.38;;;;;;;;;;5059588;28;41207;-72
2023/12/23 07:43:59;;;;;;;3.28;0.98;;;;;;;;;;5069612;28;41710;-71
2023/12/23 07:46:27;;;;;;;6.47;1.52;;;;;;;;;;5063645;28;43064;-72
2023/12/23 07:48:55;;;;;;;3.95;1.27;;;;;;;;;;5070123;28;42407;-72
2023/12/23 07:51:24;;;;;;;2.50;0.88;;;;;;;;;;5069170;28;41420;-72
2023/12/23 07:53:55;;;;;;;4.82;1.80;;;;;;;;;;5069246;28;42842;-72
2023/12/23 07:56:25;;;;;;;3.72;1.10;;;;;;;;;;5049384;28;42824;-72
2023/12/23 07:58:53;;;;;;;3.83;1.33;;;;;;;;;;5065885;28;42325;-71
2023/12/23 08:01:21;;;;;;;3.42;1.17;;;;;;;;;;5057025;28;41902;-71
2023/12/23 08:03:49;;;;;;;5.55;1.20;;;;;;;;;;5070577;28;42239;-72
2023/12/23 08:06:18;;;;;;;4.57;1.45;;;;;;;;;;5068912;28;42104;-71
2023/12/23 08:08:48;;;;;;;3.05;1.10;;;;;;;;;;5069999;28;42384;-72
2023/12/23 08:11:16;;;;;;;3.67;1.10;;;;;;;;;;5069054;28;41650;-72
2023/12/23 08:13:43;;;;;;;7.97;2.05;;;;;;;;;;5069271;28;41803;-72
2023/12/23 08:16:12;;;;;;;3.17;1.45;;;;;;;;;;5070004;28;41082;-71
2023/12/23 08:18:40;;;;;;;3.30;1.23;;;;;;;;;;5070007;28;41263;-71
2023/12/23 08:21:08;;;;;;;3.83;1.17;;;;;;;;;;5054337;28;43159;-72
2023/12/23 08:23:36;;;;;;;5.05;1.15;;;;;;;;;;5061635;28;41424;-72
2023/12/23 08:26:05;;;;;;;4.90;1.30;;;;;;;;;;5069280;28;41432;-72
2023/12/23 08:28:33;;;;;;;5.38;1.20;;;;;;;;;;5048005;28;39565;-72
2023/12/23 08:31:02;;;;;;;4.00;1.58;;;;;;;;;;5050253;28;40887;-72
2023/12/23 08:33:30;;;;;;;3.55;1.13;;;;;;;;;;5068886;28;41262;-72
2023/12/23 08:35:59;;;;;;;3.92;1.38;;;;;;;;;;5050663;28;41164;-72
2023/12/23 08:38:28;;;;;;;4.93;1.42;;;;;;;;;;5052575;28;41354;-72
2023/12/23 08:40:56;;;;;;;4.43;1.40;;;;;;;;;;5064747;28;41561;-72
2023/12/23 08:43:25;;;;;;;5.80;1.48;;;;;;;;;;5068945;28;41885;-71
2023/12/23 08:45:53;;;;;;;2.50;0.93;;;;;;;;;;5069434;28;42442;-72
2023/12/23 08:48:21;;;;;;;4.38;1.38;;;;;;;;;;5068423;28;41310;-72
2023/12/23 08:50:49;;;;;;;4.93;1.08;;;;;;;;;;5049728;28;41296;-71
2023/12/23 08:53:17;;;;;;;2.53;1.15;;;;;;;;;;5060515;28;42763;-72
2023/12/23 08:55:46;;;;;;;4.80;1.27;;;;;;;;;;5065036;28;41228;-71
2023/12/23 08:58:14;;;;;;;7.38;1.30;;;;;;;;;;5062737;28;41313;-74
2023/12/23 09:00:43;;;;;;;8.52;1.95;;;;;;;;;;5062403;28;41520;-75
2023/12/23 09:03:11;;;;;;;11.70;2.00;;;;;;;;;;5066422;28;40167;-76
2023/12/23 09:05:39;;;;;;;5.32;1.48;;;;;;;;;;5068243;28;41740;-76
2023/12/23 09:08:07;;;;;;;10.32;1.70;;;;;;;;;;5062755;28;40926;-75
2023/12/23 09:10:35;;;;;;;9.02;1.42;;;;;;;;;;5062862;28;41482;-74
2023/12/23 09:13:05;;;;;;;3.90;1.40;;;;;;;;;;5065164;28;42951;-74
2023/12/23 09:15:33;;;;;;;5.78;1.35;;;;;;;;;;5062231;28;41418;-74
2023/12/23 09:18:03;;;;;;;7.22;1.52;;;;;;;;;;5044797;28;40303;-75
2023/12/23 09:20:34;;;;;;;5.90;1.70;;;;;;;;;;5039226;28;41224;-75
2023/12/23 09:23:02;;;;;;;6.68;1.73;;;;;;;;;;5065817;28;41243;-75
2023/12/23 09:25:30;;;;;;;9.52;1.70;;;;;;;;;;5067300;28;41589;-75
2023/12/23 09:27:58;;;;;;;4.80;1.10;;;;;;;;;;5066953;28;41861;-73
2023/12/23 09:30:26;;;;;;;6.88;1.60;;;;;;;;;;5065607;28;41181;-73
2023/12/23 09:32:54;;;;;;;6.65;1.50;;;;;;;;;;5067227;28;41608;-77
2023/12/23 09:35:23;;;;;;;7.70;1.65;;;;;;;;;;5057751;28;42268;-78
2023/12/23 09:37:51;;;;;;;9.55;2.22;;;;;;;;;;5065777;28;41176;-75
2023/12/23 09:40:19;;;;;;;13.95;2.38;;;;;;;;;;5065264;28;42873;-77
2023/12/23 09:42:47;;;;;;;5.65;1.67;;;;;;;;;;5062428;28;41059;-75
2023/12/23 09:45:15;;;;;;;5.15;1.55;;;;;;;;;;5066552;28;41231;-77
2023/12/23 09:47:43;;;;;;;6.45;1.55;;;;;;;;;;5066728;28;42300;-77
2023/12/23 09:50:11;;;;;;;6.70;1.25;;;;;;;;;;5054888;28;41081;-76
2023/12/23 09:52:41;;;;;;;8.77;1.70;;;;;;;;;;5060812;28;42420;-76
2023/12/23 09:55:10;;;;;;;4.35;1.48;;;;;;;;;;5051719;28;41942;-76
2023/12/23 09:57:38;;;;;;;7.45;1.15;;;;;;;;;;5058912;28;41206;-77
2023/12/23 10:00:06;;;;;;;6.03;1.30;;;;;;;;;;5067151;28;41818;-76
2023/12/23 10:02:41;;;;;;;6.00;1.27;;;;;;;;;;5063894;28;42182;-75
2023/12/23 10:05:09;;;;;;;5.38;1.48;;;;;;;;;;5061983;28;41575;-76
2023/12/23 10:07:38;;;;;;;5.10;1.33;;;;;;;;;;5066799;28;43542;-80
2023/12/23 10:10:08;;;;;;;8.23;1.85;;;;;;;;;;5067740;28;40652;-82
2023/12/23 10:12:36;;;;;;;6.03;1.45;;;;;;;;;;5068473;28;41106;-77
2023/12/23 10:15:05;;;;;;;6.93;1.45;;;;;;;;;;5064861;28;41245;-76
2023/12/23 10:17:33;;;;;;;5.18;1.17;;;;;;;;;;5068287;28;42298;-75
2023/12/23 10:20:01;;;;;;;4.10;1.33;;;;;;;;;;5053936;28;43020;-76
2023/12/23 10:22:30;;;;;;;5.00;1.40;;;;;;;;;;5049758;28;41658;-75
2023/12/23 10:25:00;;;;;;;5.30;1.60;;;;;;;;;;5061431;28;41085;-74
2023/12/23 10:27:30;;;;;;;5.43;1.50;;;;;;;;;;5048768;28;42418;-74
2023/12/23 10:29:58;;;;;;;9.80;1.88;;;;;;;;;;5048913;28;41265;-75
2023/12/23 10:32:26;;;;;;;6.90;1.20;;;;;;;;;;5060810;28;41366;-74
2023/12/23 10:34:55;;;;;;;6.30;1.30;;;;;;;;;;5059463;28;43733;-74
2023/12/23 10:37:23;;;;;;;10.38;1.58;;;;;;;;;;5066378;28;41439;-74
2023/12/23 10:39:52;;;;;;;7.13;1.83;;;;;;;;;;5055850;28;42194;-74
2023/12/23 10:42:22;;;;;;;8.13;1.60;;;;;;;;;;5049871;28;41260;-75
2023/12/23 10:44:52;;;;;;;9.80;1.58;;;;;;;;;;5045202;28;41998;-74
2023/12/23 10:47:20;;;;;;;6.22;1.20;;;;;;;;;;5061450;28;42817;-73
2023/12/23 10:49:49;;;;;;;8.10;1.65;;;;;;;;;;5048337;28;41375;-73
2023/12/23 10:52:18;;;;;;;9.25;1.88;;;;;;;;;;5049248;28;41291;-73
2023/12/23 10:54:46;;;;;;;12.20;1.52;;;;;;;;;;5063988;28;41573;-73
2023/12/23 10:57:14;;;;;;;5.40;1.65;;;;;;;;;;5064185;28;41278;-75
2023/12/23 10:59:42;;;;;;;8.45;1.80;;;;;;;;;;5065272;28;43090;-75
2023/12/23 11:02:13;;;;;;;12.82;1.85;;;;;;;;;;5062985;28;40971;-74
2023/12/23 11:04:42;;;;;;;8.65;2.25;;;;;;;;;;5056635;28;41145;-75
2023/12/23 11:07:10;;;;;;;8.57;1.40;;;;;;;;;;5048382;28;41641;-75
2023/12/23 11:09:38;;;;;;;9.70;1.73;;;;;;;;;;5066732;28;41233;-76
2023/12/23 11:12:06;;;;;;;7.15;1.85;;;;;;;;;;5057168;28;41202;-76
2023/12/23 11:14:34;;;;;;;6.85;1.52;;;;;;;;;;5065701;28;41769;-77
2023/12/23 11:17:02;;;;;;;7.05;1.25;;;;;;;;;;5055181;28;42372;-76
2023/12/23 11:19:31;;;;;;;9.02;1.65;;;;;;;;;;5062536;28;43176;-76
2023/12/23 11:22:26;;;;;;;8.95;1.70;;;;;;;;;;5038475;28;39432;-76
2023/12/23 11:24:54;;;;;;;8.00;1.67;;;;;;;;;;5013555;28;41734;-76
2023/12/23 11:27:29;;;;;;;7.95;1.75;;;;;;;;;;5061232;28;43202;-76
2023/12/23 11:29:58;;;;;;;10.30;1.60;;;;;;;;;;5057633;28;41207;-74
2023/12/23 11:32:33;;;;;;;7.40;1.35;;;;;;;;;;5064651;28;41194;-74
2023/12/23 11:35:02;;;;;;;9.45;1.33;;;;;;;;;;5067145;28;41988;-75
2023/12/23 11:37:49;;;;;;;10.43;2.20;;;;;;;;;;5069623;28;41090;-76
2023/12/23 11:40:17;;;;;;;8.88;2.08;;;;;;;;;;5067311;28;41599;-77
2023/12/23 11:42:45;;;;;;;8.75;1.50;;;;;;;;;;5066678;28;40262;-77
2023/12/23 11:45:13;;;;;;;9.52;1.80;;;;;;;;;;5069715;28;41569;-76
2023/12/23 11:47:41;;;;;;;4.93;1.33;;;;;;;;;;5069903;28;42626;-76
2023/12/23 11:50:11;;;;;;;6.63;1.90;;;;;;;;;;5069489;28;41136;-74
2023/12/23 11:52:40;;;;;;;5.43;1.27;;;;;;;;;;5068771;28;41206;-74
2023/12/23 11:55:08;;;;;;;10.63;1.58;;;;;;;;;;5070108;28;42017;-76
2023/12/23 11:57:36;;;;;;;7.15;1.48;;;;;;;;;;5067214;28;41030;-75
2023/12/23 12:00:05;;;;;;;6.78;1.90;;;;;;;;;;5060387;28;42493;-80
2023/12/23 12:02:33;;;;;;;9.48;1.50;;;;;;;;;;5065809;28;43580;-80
2023/12/23 12:05:01;;;;;;;5.30;1.40;;;;;;;;;;5066801;28;42058;-82
2023/12/23 12:07:31;;;;;;;10.43;1.90;;;;;;;;;;5058624;28;41999;-80
2023/12/23 12:09:59;;;;;;;9.95;1.75;;;;;;;;;;5070194;28;41894;-80
2023/12/23 12:12:27;;;;;;;5.50;1.27;;;;;;;;;;5069230;28;41824;-79
2023/12/23 12:14:55;;;;;;;11.20;1.60;;;;;;;;;;5070573;28;42530;-80
2023/12/23 12:17:24;;;;;;;9.25;1.73;;;;;;;;;;5050905;28;41607;-80
2023/12/23 12:19:52;;;;;;;8.35;1.92;;;;;;;;;;5062071;28;42228;-80
2023/12/23 12:22:20;;;;;;;5.40;1.42;;;;;;;;;;5044171;28;41194;-79
2023/12/23 12:24:49;;;;;;;7.25;1.65;;;;;;;;;;5062445;28;42355;-78
2023/12/23 12:27:17;;;;;;;7.47;1.75;;;;;;;;;;5066447;28;42011;-75
2023/12/23 12:29:45;;;;;;;7.50;1.40;;;;;;;;;;5067799;28;41221;-76
2023/12/23 12:32:13;;;;;;;6.25;1.58;;;;;;;;;;5059298;28;41652;-76
2023/12/23 12:34:41;;;;;;;9.95;2.05;;;;;;;;;;5058872;28;41788;-74
2023/12/23 12:37:13;;;;;;;6.13;1.55;;;;;;;;;;5067670;28;42174;-75
2023/12/23 12:39:41;;;;;;;8.77;1.48;;;;;;;;;;5062456;28;41505;-74
2023/12/23 12:42:10;;;;;;;10.32;1.50;;;;;;;;;;5062704;28;42803;-77
2023/12/23 12:44:40;;;;;;;8.93;1.77;;;;;;;;;;5067116;28;41069;-77
2023/12/23 12:47:08;;;;;;;5.55;1.35;;;;;;;;;;5062932;28;42036;-77
2023/12/23 12:49:42;;;;;;;9.27;1.77;;;;;;;;;;5068308;28;41106;-77
2023/12/23 12:52:22;;;;;;;7.00;1.55;;;;;;;;;;5059294;28;41090;-77
2023/12/23 12:54:50;;;;;;;5.38;1.10;;;;;;;;;;5059307;28;42785;-77
2023/12/23 12:57:19;;;;;;;4.40;1.33;;;;;;;;;;5063021;28;41285;-77
2023/12/23 12:59:47;;;;;;;6.50;1.42;;;;;;;;;;5064542;28;41962;-77
2023/12/23 13:02:16;;;;;;;4.90;1.40;;;;;;;;;;5066528;28;43287;-76
2023/12/23 13:04:46;;;;;;;5.38;1.33;;;;;;;;;;5063175;28;41856;-77
2023/12/23 13:07:14;;;;;;;6.78;1.50;;;;;;;;;;5063888;28;42702;-77
2023/12/23 13:09:42;;;;;;;4.03;1.13;;;;;;;;;;5064093;28;41080;-77
2023/12/23 13:12:10;;;;;;;6.00;1.40;;;;;;;;;;5060241;28;41675;-76
2023/12/23 13:14:39;;;;;;;6.07;1.25;;;;;;;;;;5058531;28;42172;-76
2023/12/23 13:17:07;;;;;;;5.32;1.45;;;;;;;;;;5054527;28;40849;-73
2023/12/23 13:19:35;;;;;;;7.75;1.20;;;;;;;;;;5061643;28;42700;-76
2023/12/23 13:22:03;;;;;;;6.25;1.25;;;;;;;;;;5061509;28;42937;-76
2023/12/23 13:24:31;;;;;;;8.93;1.58;;;;;;;;;;5067710;28;40691;-76
2023/12/23 13:26:59;;;;;;;6.88;1.27;;;;;;;;;;5064563;28;42365;-76
2023/12/23 13:29:27;;;;;;;8.02;1.30;;;;;;;;;;5039605;28;41571;-76
2023/12/23 13:31:57;;;;;;;5.38;1.48;;;;;;;;;;5067427;28;42687;-76
2023/12/23 13:34:25;;;;;;;5.03;1.52;;;;;;;;;;5062523;28;42803;-76
2023/12/23 13:36:53;;;;;;;4.13;1.23;;;;;;;;;;5045747;28;39761;-76
2023/12/23 13:39:21;;;;;;;4.85;1.10;;;;;;;;;;5067742;28;42677;-76
2023/12/23 13:41:51;;;;;;;3.47;1.27;;;;;;;;;;5067915;28;41736;-76
2023/12/23 13:44:19;;;;;;;6.13;1.10;;;;;;;;;;5052627;28;41861;-76
2023/12/23 13:46:48;;;;;;;4.97;1.42;;;;;;;;;;5066988;28;41438;-76
2023/12/23 13:49:18;;;;;;;3.13;1.02;;;;;;;;;;5063951;28;41938;-76
2023/12/23 13:51:46;;;;;;;5.88;1.38;;;;;;;;;;5056538;28;42009;-77
2023/12/23 13:54:14;;;;;;;2.83;0.90;;;;;;;;;;5054227;28;42098;-77
2023/12/23 13:56:42;;;;;;;3.90;0.90;;;;;;;;;;5056687;28;41378;-76
2023/12/23 13:59:10;;;;;;;4.93;1.00;;;;;;;;;;5066454;28;41554;-78
2023/12/23 14:01:38;;;;;;;5.60;0.80;;;;;;;;;;5067174;28;42335;-78
2023/12/23 14:04:06;;;;;;;3.47;1.05;;;;;;;;;;5066124;28;41636;-78
2023/12/23 14:06:35;;;;;;;5.40;1.40;;;;;;;;;;5064671;28;42781;-77
2023/12/23 14:09:03;;;;;;;6.15;1.20;;;;;;;;;;5027125;28;41830;-78
2023/12/23 14:11:31;;;;;;;3.92;1.10;;;;;;;;;;5026105;28;41279;-77
2023/12/23 14:13:59;;;;;;;2.33;0.90;;;;;;;;;;5027027;28;41499;-78
2023/12/23 14:16:30;;;;;;;4.35;0.90;;;;;;;;;;5014258;28;40904;-78
2023/12/23 14:18:58;;;;;;;6.00;1.17;;;;;;;;;;5045097;28;41452;-78
2023/12/23 14:21:26;;;;;;;2.92;1.00;;;;;;;;;;5033874;28;42598;-78
2023/12/23 14:23:55;;;;;;;4.30;0.95;;;;;;;;;;5027159;28;41564;-78
2023/12/23 14:26:23;;;;;;;5.13;1.33;;;;;;;;;;5025771;28;41506;-78
2023/12/23 14:28:51;;;;;;;7.40;1.52;;;;;;;;;;5016955;28;43119;-78
2023/12/23 14:31:19;;;;;;;2.58;0.70;;;;;;;;;;5026268;28;41261;-77
2023/12/23 14:33:48;;;;;;;4.90;1.08;;;;;;;;;;5024065;28;41592;-78
2023/12/23 14:36:16;;;;;;;4.93;1.23;;;;;;;;;;5017396;28;41715;-78
2023/12/23 14:38:44;;;;;;;3.80;1.15;;;;;;;;;;5028967;28;41700;-78
2023/12/23 14:41:13;;;;;;;6.50;0.98;;;;;;;;;;5037712;28;42021;-78
2023/12/23 14:43:41;;;;;;;4.35;1.33;;;;;;;;;;5040406;28;41274;-78
2023/12/23 14:46:09;;;;;;;3.30;0.85;;;;;;;;;;5026280;28;41619;-78
2023/12/23 14:48:37;;;;;;;5.45;1.05;;;;;;;;;;5027120;28;43071;-75
2023/12/23 14:51:08;;;;;;;6.20;1.10;;;;;;;;;;5025936;28;41017;-75